createdAt,value
2019-05-18T00:02:27.477Z,13.20
2019-05-18T00:04:57.820Z,13.20
2019-05-18T00:07:27.999Z,13.20
2019-05-18T00:09:58.256Z,13.20
2019-05-18T00:12:28.545Z,13.20
2019-05-18T00:14:58.825Z,13.20
2019-05-18T00:17:29.053Z,13.20
2019-05-18T00:19:59.264Z,13.10
2019-05-18T00:22:29.561Z,13.10
2019-05-18T00:24:59.860Z,13.10
2019-05-18T00:27:30.086Z,13.10
2019-05-18T00:30:00.366Z,13.10
2019-05-18T00:32:30.581Z,13.10
2019-05-18T00:35:00.873Z,13.10
2019-05-18T00:37:31.081Z,13.10
2019-05-18T00:40:01.375Z,13.10
2019-05-18T00:42:31.591Z,13.10
2019-05-18T00:45:01.820Z,13.10
2019-05-18T00:47:40.754Z,13.00
2019-05-18T00:50:05.255Z,13.00
2019-05-18T00:52:35.533Z,13.00
2019-05-18T00:55:08.605Z,12.90
2019-05-18T00:57:38.917Z,12.90
2019-05-18T01:00:09.919Z,12.90
2019-05-18T01:02:40.289Z,12.80
2019-05-18T01:05:11.113Z,12.80
2019-05-18T01:07:41.582Z,12.70
2019-05-18T01:10:12.442Z,12.70
2019-05-18T01:12:44.480Z,12.60
2019-05-18T01:15:15.410Z,12.60
2019-05-18T01:17:56.892Z,12.50
2019-05-18T01:20:18.113Z,12.60
2019-05-18T01:22:48.438Z,12.50
2019-05-18T01:25:18.886Z,12.50
2019-05-18T01:27:49.173Z,12.40
2019-05-18T01:30:19.524Z,12.40
2019-05-18T01:32:49.807Z,12.40
2019-05-18T01:35:20.249Z,12.30
2019-05-18T01:37:50.536Z,12.30
2019-05-18T01:40:20.737Z,12.20
2019-05-18T01:42:51.062Z,12.20
2019-05-18T01:45:21.409Z,12.20
2019-05-18T01:47:51.698Z,12.10
2019-05-18T01:50:21.996Z,12.10
2019-05-18T01:52:52.294Z,12.10
2019-05-18T01:55:22.582Z,12.00
2019-05-18T01:57:52.861Z,12.00
2019-05-18T02:00:23.150Z,12.00
2019-05-18T02:02:53.584Z,11.90
2019-05-18T02:05:23.957Z,11.80
2019-05-18T02:07:54.289Z,11.80
2019-05-18T02:10:24.509Z,11.70
2019-05-18T02:12:54.833Z,11.70
2019-05-18T02:15:25.126Z,11.70
2019-05-18T02:17:55.329Z,11.70
2019-05-18T02:20:25.616Z,11.80
2019-05-18T02:22:55.833Z,11.90
2019-05-18T02:25:26.114Z,11.90
2019-05-18T02:27:56.405Z,11.90
2019-05-18T02:30:26.753Z,12.00
2019-05-18T02:32:57.148Z,12.00
2019-05-18T02:35:27.426Z,12.00
2019-05-18T02:37:59.283Z,12.10
2019-05-18T02:40:29.685Z,12.10
2019-05-18T02:43:00.037Z,12.10
2019-05-18T02:45:30.462Z,12.10
2019-05-18T02:48:00.618Z,12.20
2019-05-18T02:50:30.992Z,12.20
2019-05-18T02:53:01.370Z,12.20
2019-05-18T02:55:31.653Z,12.20
2019-05-18T02:58:02.079Z,12.20
2019-05-18T03:00:32.364Z,12.20
2019-05-18T03:03:02.639Z,12.20
2019-05-18T03:05:32.986Z,12.20
2019-05-18T03:08:03.312Z,12.20
2019-05-18T03:10:33.705Z,12.20
2019-05-18T03:13:05.113Z,12.10
2019-05-18T03:15:35.751Z,12.10
2019-05-18T03:18:06.051Z,12.10
2019-05-18T03:20:36.306Z,12.10
2019-05-18T03:23:06.555Z,12.10
2019-05-18T03:25:36.807Z,12.00
2019-05-18T03:28:07.162Z,12.00
2019-05-18T03:30:37.465Z,12.10
2019-05-18T03:33:07.738Z,12.00
2019-05-18T03:35:38.147Z,12.00
2019-05-18T03:38:08.430Z,12.00
2019-05-18T03:40:38.717Z,12.00
2019-05-18T03:43:09.145Z,12.10
2019-05-18T03:45:39.619Z,12.10
2019-05-18T03:48:09.889Z,12.10
2019-05-18T03:50:40.097Z,12.20
2019-05-18T03:53:10.385Z,12.30
2019-05-18T03:55:40.800Z,12.30
2019-05-18T03:58:11.089Z,12.40
2019-05-18T04:00:41.357Z,12.40
2019-05-18T04:03:11.600Z,12.50
2019-05-18T04:05:42.035Z,12.50
2019-05-18T04:08:12.322Z,12.60
2019-05-18T04:10:42.608Z,12.60
2019-05-18T04:13:12.992Z,12.70
2019-05-18T04:15:43.286Z,12.70
2019-05-18T04:18:13.494Z,12.80
2019-05-18T04:20:43.809Z,12.80
2019-05-18T04:23:13.952Z,12.80
2019-05-18T04:25:44.304Z,12.90
2019-05-18T04:28:14.622Z,12.90
2019-05-18T04:30:44.831Z,13.00
2019-05-18T04:33:15.120Z,13.10
2019-05-18T04:35:45.406Z,13.10
2019-05-18T04:38:15.617Z,13.10
2019-05-18T04:40:45.986Z,13.20
2019-05-18T04:43:16.262Z,13.20
2019-05-18T04:45:46.560Z,13.30
2019-05-18T04:48:16.947Z,13.40
2019-05-18T04:50:47.482Z,13.40
2019-05-18T04:53:17.770Z,13.40
2019-05-18T04:55:48.000Z,13.50
2019-05-18T04:58:18.499Z,13.60
2019-05-18T05:00:48.982Z,13.60
2019-05-18T05:03:19.373Z,13.60
2019-05-18T05:05:50.054Z,13.70
2019-05-18T05:08:20.509Z,13.70
2019-05-18T05:10:50.912Z,13.70
2019-05-18T05:13:21.140Z,13.80
2019-05-18T05:15:51.793Z,13.80
2019-05-18T05:18:22.085Z,13.80
2019-05-18T05:20:52.313Z,13.90
2019-05-18T05:23:22.697Z,14.00
2019-05-18T05:25:53.111Z,14.10
2019-05-18T05:28:23.662Z,14.20
2019-05-18T05:30:54.063Z,14.30
2019-05-18T05:33:24.368Z,14.30
2019-05-18T05:35:54.646Z,14.40
2019-05-18T05:38:25.149Z,14.50
2019-05-18T05:40:55.562Z,14.60
2019-05-18T05:43:25.837Z,14.60
2019-05-18T05:45:56.062Z,14.70
2019-05-18T05:48:26.417Z,14.70
2019-05-18T05:50:56.708Z,14.80
2019-05-18T05:53:26.923Z,14.80
2019-05-18T05:55:57.208Z,14.90
2019-05-18T05:58:27.617Z,15.00
2019-05-18T06:00:58.121Z,15.00
2019-05-18T06:03:28.349Z,15.10
2019-05-18T06:05:58.765Z,15.20
2019-05-18T06:08:29.137Z,15.20
2019-05-18T06:10:59.460Z,15.30
2019-05-18T06:13:29.746Z,15.40
2019-05-18T06:16:00.312Z,15.50
2019-05-18T06:18:30.717Z,15.60
2019-05-18T06:21:01.117Z,15.70
2019-05-18T06:23:31.509Z,15.80
2019-05-18T06:26:01.909Z,15.90
2019-05-18T06:28:32.293Z,15.90
2019-05-18T06:31:02.504Z,16.00
2019-05-18T06:33:32.993Z,16.10
2019-05-18T06:36:03.309Z,16.20
2019-05-18T06:38:33.706Z,16.20
2019-05-18T06:41:03.970Z,16.20
2019-05-18T06:43:34.196Z,16.20
2019-05-18T06:46:04.747Z,16.10
2019-05-18T06:48:35.244Z,16.20
2019-05-18T06:51:07.545Z,16.20
2019-05-18T06:53:37.709Z,16.10
2019-05-18T06:56:08.523Z,16.20
2019-05-18T06:58:39.255Z,16.20
2019-05-18T07:01:09.533Z,16.20
2019-05-18T07:03:39.933Z,16.20
2019-05-18T07:06:10.615Z,16.20
2019-05-18T07:08:41.184Z,16.30
2019-05-18T07:11:11.661Z,16.30
2019-05-18T07:13:42.053Z,16.30
2019-05-18T07:16:12.889Z,16.20
2019-05-18T07:18:43.377Z,16.20
2019-05-18T07:21:21.786Z,16.20
2019-05-18T07:23:45.728Z,16.30
2019-05-18T07:26:16.109Z,16.30
2019-05-18T07:28:46.401Z,16.30
2019-05-18T07:31:16.657Z,16.30
2019-05-18T07:33:47.007Z,16.30
2019-05-18T07:36:17.298Z,16.40
2019-05-18T07:38:47.785Z,16.50
2019-05-18T07:41:18.177Z,16.60
2019-05-18T07:43:48.452Z,16.70
2019-05-18T07:46:19.030Z,16.90
2019-05-18T07:48:49.723Z,16.90
2019-05-18T07:51:20.178Z,17.00
2019-05-18T07:53:50.673Z,17.20
2019-05-18T07:56:21.288Z,17.40
2019-05-18T07:58:51.625Z,17.50
2019-05-18T08:01:22.821Z,17.80
2019-05-18T08:03:53.294Z,17.80
2019-05-18T08:06:23.735Z,17.90
2019-05-18T08:08:54.016Z,18.00
2019-05-18T08:11:24.289Z,18.00
2019-05-18T08:13:54.493Z,17.90
2019-05-18T08:16:24.873Z,18.00
2019-05-18T08:18:58.006Z,18.10
2019-05-18T08:21:27.233Z,18.40
2019-05-18T08:23:57.780Z,18.70
2019-05-18T08:26:28.412Z,18.90
2019-05-18T08:28:59.067Z,19.10
2019-05-18T08:31:29.861Z,19.30
2019-05-18T08:34:00.271Z,19.40
2019-05-18T08:36:30.774Z,19.50
2019-05-18T08:39:01.565Z,19.80
2019-05-18T08:41:32.148Z,19.90
2019-05-18T08:44:02.667Z,19.90
2019-05-18T08:46:32.965Z,19.90
2019-05-18T08:49:03.246Z,19.80
2019-05-18T08:51:33.646Z,19.60
2019-05-18T08:54:04.193Z,19.40
2019-05-18T08:56:34.969Z,19.50
2019-05-18T09:01:32.221Z,19.80
2019-05-18T09:04:02.862Z,20.30
2019-05-18T09:06:33.437Z,20.30
2019-05-18T09:09:05.249Z,20.30
2019-05-18T09:11:35.530Z,20.30
2019-05-18T09:14:05.904Z,20.40
2019-05-18T09:16:36.280Z,20.50
2019-05-18T09:19:06.693Z,20.80
2019-05-18T09:21:37.091Z,21.10
2019-05-18T09:24:07.392Z,20.90
2019-05-18T09:26:37.791Z,20.90
2019-05-18T09:29:08.073Z,20.70
2019-05-18T09:31:38.548Z,20.50
2019-05-18T09:34:08.939Z,20.80
2019-05-18T09:36:39.330Z,20.50
2019-05-18T09:39:09.744Z,20.30
2019-05-18T09:41:40.374Z,19.30
2019-05-18T09:44:10.985Z,19.40
2019-05-18T09:46:41.574Z,19.80
2019-05-18T09:49:12.139Z,20.00
2019-05-18T09:51:42.477Z,20.30
2019-05-18T09:54:12.873Z,20.30
2019-05-18T09:56:43.466Z,20.30
2019-05-18T09:59:14.017Z,20.40
2019-05-18T10:01:44.525Z,20.50
2019-05-18T10:04:15.018Z,20.80
2019-05-18T10:06:45.513Z,21.10
2019-05-18T10:09:16.011Z,21.40
2019-05-18T10:11:46.402Z,21.60
2019-05-18T10:14:16.893Z,21.70
2019-05-18T10:16:47.305Z,22.00
2019-05-18T10:19:17.900Z,22.00
2019-05-18T10:21:48.109Z,22.10
2019-05-18T10:24:18.797Z,22.10
2019-05-18T10:26:49.577Z,22.20
2019-05-18T10:29:20.497Z,22.40
2019-05-18T10:31:51.006Z,22.70
2019-05-18T10:34:21.526Z,22.80
2019-05-18T10:36:52.199Z,22.70
2019-05-18T10:39:22.578Z,22.70
2019-05-18T10:41:52.973Z,22.80
2019-05-18T10:44:23.559Z,22.60
2019-05-18T10:46:54.053Z,22.60
2019-05-18T10:49:24.493Z,22.60
2019-05-18T10:51:55.306Z,22.80
2019-05-18T10:54:26.059Z,22.70
2019-05-18T10:56:56.653Z,22.20
2019-05-18T10:59:27.095Z,21.80
2019-05-18T11:01:57.853Z,21.70
2019-05-18T11:04:28.562Z,21.70
2019-05-18T11:06:58.953Z,21.50
2019-05-18T11:09:29.556Z,21.60
2019-05-18T11:12:00.297Z,22.10
2019-05-18T11:14:30.848Z,22.40
2019-05-18T11:17:01.701Z,22.60
2019-05-18T11:19:32.230Z,22.70
2019-05-18T11:22:02.975Z,22.90
2019-05-18T11:24:33.635Z,23.00
2019-05-18T11:27:04.209Z,23.20
2019-05-18T11:29:34.847Z,23.00
2019-05-18T11:32:05.481Z,22.70
2019-05-18T11:34:36.045Z,22.80
2019-05-18T11:37:06.551Z,22.80
2019-05-18T11:39:37.118Z,22.90
2019-05-18T11:42:07.767Z,23.10
2019-05-18T11:44:38.469Z,23.30
2019-05-18T11:47:09.122Z,23.40
2019-05-18T11:49:40.289Z,23.30
2019-05-18T11:52:12.268Z,23.30
2019-05-18T11:54:42.856Z,23.40
2019-05-18T11:57:13.384Z,23.60
2019-05-18T11:59:43.983Z,23.50
2019-05-18T12:02:14.626Z,23.60
2019-05-18T12:04:48.659Z,23.50
2019-05-18T12:07:17.661Z,23.30
2019-05-18T12:09:48.174Z,22.90
2019-05-18T12:12:18.758Z,22.80
2019-05-18T12:14:49.297Z,22.70
2019-05-18T12:17:19.889Z,22.50
2019-05-18T12:19:50.475Z,22.40
2019-05-18T12:22:21.150Z,22.40
2019-05-18T12:24:51.705Z,22.40
2019-05-18T12:27:22.179Z,22.40
2019-05-18T12:29:52.602Z,22.30
2019-05-18T12:32:23.105Z,22.30
2019-05-18T12:34:53.605Z,22.10
2019-05-18T12:37:24.129Z,22.00
2019-05-18T12:39:54.683Z,21.90
2019-05-18T12:42:25.291Z,21.90
2019-05-18T12:44:55.930Z,22.00
2019-05-18T12:47:26.427Z,22.00
2019-05-18T12:49:56.977Z,21.90
2019-05-18T12:52:27.940Z,22.00
2019-05-18T12:54:58.624Z,21.90
2019-05-18T12:57:29.323Z,21.90
2019-05-18T12:59:59.878Z,22.00
2019-05-18T13:02:30.457Z,22.30
2019-05-18T13:05:01.014Z,22.40
2019-05-18T13:07:31.637Z,22.60
2019-05-18T13:10:02.377Z,22.60
2019-05-18T13:12:32.755Z,22.60
2019-05-18T13:15:04.713Z,22.50
2019-05-18T13:17:35.417Z,22.40
2019-05-18T13:20:11.365Z,22.20
2019-05-18T13:22:42.017Z,22.10
2019-05-18T13:25:13.357Z,21.80
2019-05-18T13:27:44.245Z,21.90
2019-05-18T13:30:19.598Z,21.80
2019-05-18T13:32:48.387Z,21.60
2019-05-18T13:35:19.322Z,21.50
2019-05-18T13:37:49.993Z,21.50
2019-05-18T13:40:20.822Z,21.40
2019-05-18T13:42:51.382Z,21.30
2019-05-18T13:45:22.423Z,21.50
2019-05-18T13:47:52.987Z,21.50
2019-05-18T13:50:23.633Z,21.60
2019-05-18T13:52:54.292Z,21.70
2019-05-18T13:55:25.043Z,21.80
2019-05-18T13:57:55.554Z,21.90
2019-05-18T14:00:26.118Z,22.00
2019-05-18T14:02:56.702Z,21.90
2019-05-18T14:05:27.369Z,21.90
2019-05-18T14:07:57.577Z,22.10
2019-05-18T14:10:28.160Z,22.00
2019-05-18T14:12:58.848Z,22.20
2019-05-18T14:15:29.520Z,22.00
2019-05-18T14:18:00.096Z,22.00
2019-05-18T14:20:30.498Z,21.80
2019-05-18T14:23:01.072Z,21.60
2019-05-18T14:25:31.603Z,21.40
2019-05-18T14:28:02.446Z,21.40
2019-05-18T14:30:33.000Z,21.20
2019-05-18T14:33:03.616Z,21.10
2019-05-18T14:35:34.173Z,21.00
2019-05-18T14:38:04.684Z,20.90
2019-05-18T14:40:35.191Z,20.90
2019-05-18T14:43:05.826Z,20.80
2019-05-18T14:45:36.484Z,20.70
2019-05-18T14:48:07.089Z,20.50
2019-05-18T14:50:37.769Z,20.50
2019-05-18T14:53:08.290Z,20.50
2019-05-18T14:55:38.858Z,20.40
2019-05-18T14:58:09.549Z,20.30
2019-05-18T15:00:40.127Z,20.30
2019-05-18T15:03:10.619Z,20.30
2019-05-18T15:05:41.117Z,20.20
2019-05-18T15:08:11.797Z,20.30
2019-05-18T15:10:42.494Z,20.20
2019-05-18T15:13:13.198Z,20.20
2019-05-18T15:15:43.694Z,20.20
2019-05-18T15:18:14.237Z,20.10
2019-05-18T15:20:44.841Z,20.10
2019-05-18T15:23:15.574Z,20.10
2019-05-18T15:25:50.992Z,20.10
2019-05-18T15:28:18.334Z,20.10
2019-05-18T15:30:48.997Z,20.20
2019-05-18T15:33:19.785Z,20.30
2019-05-18T15:35:50.762Z,20.40
2019-05-18T15:38:21.343Z,20.50
2019-05-18T15:40:51.997Z,20.50
2019-05-18T15:43:22.301Z,20.60
2019-05-18T15:45:52.903Z,20.50
2019-05-18T15:48:23.517Z,20.60
2019-05-18T15:50:53.901Z,20.40
2019-05-18T15:53:24.449Z,20.20
2019-05-18T15:56:05.498Z,19.80
2019-05-18T15:58:27.254Z,19.10
2019-05-18T16:00:57.694Z,18.60
2019-05-18T16:03:28.361Z,18.10
2019-05-18T16:05:59.006Z,17.70
2019-05-18T16:08:29.701Z,17.30
2019-05-18T16:11:00.012Z,17.20
2019-05-18T16:13:30.381Z,16.90
2019-05-18T16:16:00.935Z,16.80
2019-05-18T16:18:31.429Z,16.70
2019-05-18T16:21:02.154Z,16.60
2019-05-18T16:23:32.873Z,16.50
2019-05-18T16:26:03.436Z,16.40
2019-05-18T16:28:33.949Z,16.30
2019-05-18T16:31:04.718Z,16.30
2019-05-18T16:33:35.009Z,16.30
2019-05-18T16:36:05.450Z,16.20
2019-05-18T16:38:35.845Z,16.30
2019-05-18T16:41:06.906Z,16.20
2019-05-18T16:43:37.492Z,16.20
2019-05-18T16:46:07.747Z,16.10
2019-05-18T16:48:39.516Z,16.10
2019-05-18T16:51:10.036Z,16.10
2019-05-18T16:53:40.474Z,16.00
2019-05-18T16:56:11.019Z,16.00
2019-05-18T16:58:41.576Z,15.90
2019-05-18T17:01:12.465Z,15.90
2019-05-18T17:03:43.558Z,15.90
2019-05-18T17:06:16.392Z,16.30
2019-05-18T17:08:46.193Z,16.50
2019-05-18T17:11:16.777Z,16.60
2019-05-18T17:13:47.347Z,16.80
2019-05-18T17:16:17.929Z,16.90
2019-05-18T17:18:48.428Z,16.80
2019-05-18T17:21:19.147Z,16.60
2019-05-18T17:23:49.649Z,16.50
2019-05-18T17:26:20.127Z,16.40
2019-05-18T17:28:50.802Z,16.30
2019-05-18T17:31:21.476Z,16.20
2019-05-18T17:33:51.709Z,16.20
2019-05-18T17:36:22.089Z,16.10
2019-05-18T17:38:52.617Z,16.10
2019-05-18T17:41:22.830Z,16.00
2019-05-18T17:43:53.280Z,16.00
2019-05-18T17:46:23.605Z,16.00
2019-05-18T17:48:53.946Z,15.90
2019-05-18T17:51:24.361Z,15.80
2019-05-18T17:53:54.938Z,15.60
2019-05-18T17:56:25.589Z,15.60
2019-05-18T17:58:55.751Z,15.60
2019-05-18T18:01:26.168Z,15.50
2019-05-18T18:03:56.693Z,15.50
2019-05-18T18:06:27.045Z,15.40
2019-05-18T18:08:57.653Z,15.40
2019-05-18T18:11:28.017Z,15.40
2019-05-18T18:13:58.614Z,15.30
2019-05-18T18:16:29.608Z,15.30
2019-05-18T18:18:59.898Z,15.30
2019-05-18T18:21:30.118Z,15.20
2019-05-18T18:24:00.639Z,15.20
2019-05-18T18:26:30.998Z,15.10
2019-05-18T18:29:04.164Z,15.10
2019-05-18T18:31:33.243Z,15.00
2019-05-18T18:34:03.989Z,15.00
2019-05-18T18:36:34.612Z,14.90
2019-05-18T18:39:07.245Z,14.90
2019-05-18T18:41:37.701Z,14.90
2019-05-18T18:44:07.929Z,14.80
2019-05-18T18:46:38.307Z,14.80
2019-05-18T18:49:09.047Z,14.90
2019-05-18T18:51:39.548Z,14.80
2019-05-18T18:54:12.640Z,14.80
2019-05-18T18:56:41.777Z,14.80
2019-05-18T18:59:12.062Z,14.80
2019-05-18T19:01:42.290Z,14.80
2019-05-18T19:04:12.643Z,14.80
2019-05-18T19:06:42.959Z,14.70
2019-05-18T19:09:13.426Z,14.70
2019-05-18T19:11:43.653Z,14.70
2019-05-18T19:14:14.006Z,14.60
2019-05-18T19:16:44.511Z,14.50
2019-05-18T19:19:14.781Z,14.50
2019-05-18T19:21:45.356Z,14.50
2019-05-18T19:24:15.645Z,14.40
2019-05-18T19:26:46.322Z,14.40
2019-05-18T19:29:16.550Z,14.40
2019-05-18T19:31:46.844Z,14.40
2019-05-18T19:34:17.139Z,14.40
2019-05-18T19:36:47.389Z,14.30
2019-05-18T19:39:17.810Z,14.30
2019-05-18T19:41:48.565Z,14.30
2019-05-18T19:44:18.856Z,14.30
2019-05-18T19:46:49.189Z,14.30
2019-05-18T19:49:19.401Z,14.30
2019-05-18T19:51:49.684Z,14.30
2019-05-18T19:54:20.049Z,14.30
2019-05-18T19:56:50.534Z,14.30
2019-05-18T19:59:20.954Z,14.30
2019-05-18T20:01:51.329Z,14.30
2019-05-18T20:04:21.548Z,14.20
2019-05-18T20:06:52.045Z,14.20
2019-05-18T20:09:22.444Z,14.20
2019-05-18T20:11:52.815Z,14.10
2019-05-18T20:14:23.418Z,14.10
2019-05-18T20:16:53.741Z,14.20
2019-05-18T20:19:38.295Z,14.10
2019-05-18T20:21:56.686Z,14.20
2019-05-18T20:24:27.101Z,14.20
2019-05-18T20:26:57.334Z,14.10
2019-05-18T20:29:27.822Z,14.10
2019-05-18T20:31:58.041Z,14.00
2019-05-18T20:34:28.361Z,14.10
2019-05-18T20:36:58.923Z,14.20
2019-05-18T20:39:29.306Z,14.20
2019-05-18T20:41:59.629Z,14.30
2019-05-18T20:44:29.937Z,14.20
2019-05-18T20:47:00.229Z,14.10
2019-05-18T20:49:30.747Z,14.10
2019-05-18T20:52:01.065Z,14.00
2019-05-18T20:54:31.554Z,14.00
2019-05-18T20:57:01.864Z,13.80
2019-05-18T20:59:32.379Z,13.90
2019-05-18T21:02:03.042Z,13.80
2019-05-18T21:04:33.534Z,13.90
2019-05-18T21:07:04.109Z,13.90
2019-05-18T21:09:34.474Z,13.90
2019-05-18T21:12:04.934Z,13.90
2019-05-18T21:14:35.465Z,13.90
2019-05-18T21:17:05.798Z,13.90
2019-05-18T21:19:36.365Z,13.90
2019-05-18T21:22:06.701Z,14.00
2019-05-18T21:24:36.929Z,13.90
2019-05-18T21:27:07.517Z,13.80
2019-05-18T21:29:38.053Z,13.80
2019-05-18T21:32:08.577Z,13.80
2019-05-18T21:34:39.037Z,13.80
2019-05-18T21:37:09.445Z,13.70
2019-05-18T21:39:39.691Z,13.60
2019-05-18T21:42:10.185Z,13.60
2019-05-18T21:44:40.484Z,13.60
2019-05-18T21:47:11.075Z,13.60
2019-05-18T21:49:41.343Z,13.60
2019-05-18T21:52:11.614Z,13.50
2019-05-18T21:54:41.914Z,13.40
2019-05-18T21:57:12.417Z,13.30
2019-05-18T21:59:42.743Z,13.30
2019-05-18T22:02:13.037Z,13.30
2019-05-18T22:04:43.274Z,13.30
2019-05-18T22:07:13.635Z,13.30
2019-05-18T22:09:43.933Z,13.30
2019-05-18T22:12:14.230Z,13.40
2019-05-18T22:14:44.691Z,13.40
2019-05-18T22:17:15.031Z,13.30
2019-05-18T22:19:45.605Z,13.30
2019-05-18T22:22:15.895Z,13.30
2019-05-18T22:24:46.177Z,13.30
2019-05-18T22:27:16.457Z,13.30
2019-05-18T22:29:46.725Z,13.30
2019-05-18T22:32:17.090Z,13.30
2019-05-18T22:34:47.356Z,13.30
2019-05-18T22:37:17.790Z,13.30
2019-05-18T22:39:48.569Z,13.30
2019-05-18T22:42:18.730Z,13.30
2019-05-18T22:44:48.921Z,13.30
2019-05-18T22:47:19.223Z,13.30
2019-05-18T22:49:49.526Z,13.20
2019-05-18T22:52:19.933Z,13.20
2019-05-18T22:54:50.229Z,13.20
2019-05-18T22:57:20.445Z,13.20
2019-05-18T22:59:50.791Z,13.30
2019-05-18T23:02:21.187Z,13.20
2019-05-18T23:04:51.772Z,13.30
2019-05-18T23:07:22.266Z,13.20
2019-05-18T23:09:52.833Z,13.20
2019-05-18T23:12:23.109Z,13.20
2019-05-18T23:14:53.534Z,13.20
2019-05-18T23:17:23.825Z,13.20
2019-05-18T23:19:54.117Z,13.20
2019-05-18T23:22:24.512Z,13.20
2019-05-18T23:24:54.753Z,13.20
2019-05-18T23:27:25.110Z,13.20
2019-05-18T23:29:55.425Z,13.20
2019-05-18T23:32:25.653Z,13.20
2019-05-18T23:34:56.152Z,13.20
2019-05-18T23:37:26.812Z,13.20
2019-05-18T23:39:57.118Z,13.20
2019-05-18T23:42:27.269Z,13.10
2019-05-18T23:44:57.595Z,13.10
2019-05-18T23:47:27.894Z,13.10
2019-05-18T23:49:58.119Z,13.10
2019-05-18T23:52:28.336Z,13.00
2019-05-18T23:54:58.932Z,13.10
2019-05-18T23:57:29.365Z,13.10
2019-05-18T23:59:59.650Z,13.10
